createdAt,value
2022-12-28T00:01:49.098Z,4.46
2022-12-28T00:04:16.170Z,4.52
2022-12-28T00:06:43.237Z,4.52
2022-12-28T00:09:12.944Z,4.32
2022-12-28T00:11:43.763Z,4.40
2022-12-28T00:14:10.763Z,4.41
2022-12-28T00:16:40.242Z,4.26
2022-12-28T00:19:17.064Z,4.43
2022-12-28T00:21:45.827Z,4.54
2022-12-28T00:24:20.105Z,4.22
2022-12-28T00:26:47.126Z,4.38
2022-12-28T00:29:17.135Z,4.33
2022-12-28T00:31:47.842Z,3.98
2022-12-28T00:34:15.212Z,4.43
2022-12-28T00:37:08.701Z,4.36
2022-12-28T00:39:29.820Z,4.28
2022-12-28T00:41:56.748Z,4.16
2022-12-28T00:44:23.657Z,4.25
2022-12-28T00:46:50.901Z,3.95
2022-12-28T00:49:18.573Z,4.04
2022-12-28T00:51:45.507Z,4.09
2022-12-28T00:54:12.499Z,4.22
2022-12-28T00:56:43.109Z,4.11
2022-12-28T00:59:10.619Z,4.25
2022-12-28T01:01:37.752Z,4.15
2022-12-28T01:04:05.098Z,4.03
2022-12-28T01:06:32.031Z,3.97
2022-12-28T01:08:59.002Z,4.23
2022-12-28T01:11:29.968Z,4.26
2022-12-28T01:14:00.087Z,4.02
2022-12-28T01:16:32.947Z,4.24
2022-12-28T01:19:02.179Z,4.21
2022-12-28T01:21:32.561Z,3.92
2022-12-28T01:24:01.815Z,4.13
2022-12-28T01:26:29.468Z,4.16
2022-12-28T01:28:57.961Z,4.01
2022-12-28T01:31:24.939Z,4.13
2022-12-28T01:33:52.232Z,4.15
2022-12-28T01:36:31.559Z,4.09
2022-12-28T01:39:01.503Z,4.04
2022-12-28T01:41:30.184Z,4.08
2022-12-28T01:43:57.077Z,3.98
2022-12-28T01:46:31.346Z,3.75
2022-12-28T01:49:26.524Z,3.86
2022-12-28T01:52:01.961Z,3.93
2022-12-28T01:54:32.437Z,3.86
2022-12-28T01:56:59.755Z,3.98
2022-12-28T01:59:32.038Z,3.87
2022-12-28T02:01:59.482Z,3.96
2022-12-28T02:04:26.958Z,3.80
2022-12-28T02:06:55.190Z,3.61
2022-12-28T02:09:33.324Z,3.95
2022-12-28T02:12:01.380Z,3.97
2022-12-28T02:14:28.967Z,3.74
2022-12-28T02:16:56.230Z,3.87
2022-12-28T02:19:49.600Z,3.97
2022-12-28T02:22:31.452Z,3.98
2022-12-28T02:25:20.094Z,4.00
2022-12-28T02:28:30.815Z,4.02
2022-12-28T02:31:07.505Z,3.57
2022-12-28T02:33:44.573Z,4.07
2022-12-28T02:36:21.557Z,4.00
2022-12-28T02:38:54.683Z,3.99
2022-12-28T02:41:26.009Z,4.00
2022-12-28T02:43:54.511Z,4.00
2022-12-28T02:46:43.341Z,4.01
2022-12-28T02:49:47.262Z,3.97
2022-12-28T02:52:26.501Z,3.98
2022-12-28T02:55:43.936Z,4.00
2022-12-28T02:58:49.905Z,3.90
2022-12-28T03:01:41.513Z,3.88
2022-12-28T03:04:31.865Z,3.82
2022-12-28T03:08:08.855Z,3.61
2022-12-28T03:10:50.345Z,3.63
2022-12-28T03:13:42.879Z,3.73
2022-12-28T03:16:26.447Z,3.52
2022-12-28T03:19:22.580Z,3.64
2022-12-28T03:22:15.357Z,3.38
2022-12-28T03:25:04.370Z,3.55
2022-12-28T03:27:52.203Z,3.70
2022-12-28T03:30:41.685Z,3.77
2022-12-28T03:33:11.853Z,3.75
2022-12-28T03:35:54.812Z,3.58
2022-12-28T03:38:47.644Z,3.80
2022-12-28T03:41:51.420Z,3.54
2022-12-28T03:44:34.155Z,3.64
2022-12-28T03:47:13.956Z,3.52
2022-12-28T03:49:41.592Z,3.64
2022-12-28T03:52:10.288Z,3.80
2022-12-28T03:54:37.765Z,3.67
2022-12-28T03:57:04.721Z,3.82
2022-12-28T03:59:36.925Z,3.90
2022-12-28T04:02:05.534Z,3.63
2022-12-28T04:04:33.885Z,3.79
2022-12-28T04:07:01.221Z,3.88
2022-12-28T04:09:30.129Z,3.83
2022-12-28T04:11:57.110Z,3.83
2022-12-28T04:14:33.570Z,3.14
2022-12-28T04:17:00.624Z,3.59
2022-12-28T04:19:27.878Z,3.57
2022-12-28T04:21:54.821Z,3.61
2022-12-28T04:24:21.984Z,3.89
2022-12-28T04:26:48.936Z,3.72
2022-12-28T04:29:15.913Z,3.72
2022-12-28T04:31:50.956Z,4.00
2022-12-28T04:34:20.325Z,3.79
2022-12-28T04:36:54.808Z,3.94
2022-12-28T04:39:23.090Z,4.00
2022-12-28T04:41:50.812Z,3.92
2022-12-28T04:44:17.828Z,3.77
2022-12-28T04:46:44.795Z,4.07
2022-12-28T04:49:11.740Z,3.80
2022-12-28T04:51:38.753Z,3.98
2022-12-28T04:54:05.863Z,3.89
2022-12-28T04:56:32.872Z,3.73
2022-12-28T04:59:01.035Z,4.09
2022-12-28T05:01:28.363Z,4.08
2022-12-28T05:03:58.256Z,3.97
2022-12-28T05:06:28.079Z,4.19
2022-12-28T05:08:56.818Z,4.12
2022-12-28T05:11:28.509Z,4.25
2022-12-28T05:13:56.615Z,4.22
2022-12-28T05:16:26.124Z,4.21
2022-12-28T05:18:53.334Z,4.13
2022-12-28T05:21:22.873Z,4.00
2022-12-28T05:23:54.988Z,4.15
2022-12-28T05:26:24.760Z,4.07
2022-12-28T05:28:52.050Z,4.09
2022-12-28T05:31:22.457Z,4.02
2022-12-28T05:33:50.149Z,3.52
2022-12-28T05:36:19.928Z,3.72
2022-12-28T05:38:47.687Z,3.83
2022-12-28T05:41:17.740Z,3.97
2022-12-28T05:43:45.221Z,3.97
2022-12-28T05:46:16.636Z,3.94
2022-12-28T05:48:44.045Z,3.71
2022-12-28T05:51:14.599Z,3.87
2022-12-28T05:53:42.179Z,3.86
2022-12-28T05:56:14.551Z,4.02
2022-12-28T05:58:46.512Z,3.79
2022-12-28T06:01:16.336Z,3.97
2022-12-28T06:03:44.148Z,3.94
2022-12-28T06:06:16.535Z,3.86
2022-12-28T06:08:44.688Z,3.96
2022-12-28T06:11:14.712Z,4.00
2022-12-28T06:13:42.153Z,3.63
2022-12-28T06:16:15.153Z,3.90
2022-12-28T06:18:43.044Z,4.18
2022-12-28T06:21:14.425Z,4.07
2022-12-28T06:23:42.402Z,4.02
2022-12-28T06:26:12.406Z,3.84
2022-12-28T06:28:40.544Z,3.92
2022-12-28T06:31:09.081Z,4.14
2022-12-28T06:33:36.185Z,4.16
2022-12-28T06:36:03.973Z,4.22
2022-12-28T06:38:34.578Z,4.10
2022-12-28T06:41:14.799Z,4.31
2022-12-28T06:43:49.178Z,4.22
2022-12-28T06:46:18.246Z,4.46
2022-12-28T06:48:45.775Z,4.38
2022-12-28T06:51:21.194Z,4.39
2022-12-28T06:53:49.731Z,4.54
2022-12-28T06:56:19.904Z,4.41
2022-12-28T06:58:47.909Z,4.38
2022-12-28T07:01:20.303Z,4.49
2022-12-28T07:03:49.426Z,4.66
2022-12-28T07:06:18.226Z,4.68
2022-12-28T07:08:46.039Z,4.65
2022-12-28T07:11:15.841Z,4.69
2022-12-28T07:13:43.134Z,4.67
2022-12-28T07:16:19.577Z,4.60
2022-12-28T07:18:47.404Z,4.75
2022-12-28T07:21:21.478Z,4.57
2022-12-28T07:23:50.341Z,4.64
2022-12-28T07:26:22.536Z,4.90
2022-12-28T07:28:52.144Z,5.03
2022-12-28T07:31:21.692Z,4.86
2022-12-28T07:33:49.990Z,4.76
2022-12-28T07:36:19.112Z,5.11
2022-12-28T07:38:46.416Z,5.15
2022-12-28T07:41:21.718Z,5.15
2022-12-28T07:43:49.431Z,5.21
2022-12-28T07:46:17.857Z,5.23
2022-12-28T07:48:45.604Z,5.19
2022-12-28T07:51:19.716Z,5.19
2022-12-28T07:53:49.165Z,5.29
2022-12-28T07:56:17.315Z,5.32
2022-12-28T07:58:58.140Z,5.31
2022-12-28T08:01:27.885Z,5.24
2022-12-28T08:03:57.367Z,5.24
2022-12-28T08:06:25.405Z,4.93
2022-12-28T08:08:59.879Z,5.03
2022-12-28T08:11:30.031Z,5.31
2022-12-28T08:13:58.033Z,5.32
2022-12-28T08:16:27.029Z,5.30
2022-12-28T08:18:55.103Z,5.64
2022-12-28T08:21:23.652Z,5.72
2022-12-28T08:23:50.726Z,5.62
2022-12-28T08:26:23.880Z,5.85
2022-12-28T08:28:54.652Z,5.67
2022-12-28T08:31:27.832Z,5.57
2022-12-28T08:33:56.088Z,5.79
2022-12-28T08:36:23.565Z,5.71
2022-12-28T08:38:50.974Z,6.05
2022-12-28T08:41:21.172Z,6.10
2022-12-28T08:43:49.476Z,6.01
2022-12-28T08:46:22.195Z,6.15
2022-12-28T08:48:50.434Z,6.11
2022-12-28T08:51:21.608Z,6.25
2022-12-28T08:53:49.552Z,6.05
2022-12-28T08:56:18.842Z,6.32
2022-12-28T08:58:46.940Z,6.36
2022-12-28T09:01:21.087Z,6.46
2022-12-28T09:03:50.370Z,6.56
2022-12-28T09:06:23.745Z,6.63
2022-12-28T09:09:07.730Z,6.70
2022-12-28T09:11:36.061Z,6.61
2022-12-28T09:14:04.532Z,6.57
2022-12-28T09:16:31.843Z,6.84
2022-12-28T09:19:00.955Z,6.85
2022-12-28T09:21:30.656Z,6.79
2022-12-28T09:24:00.578Z,6.84
2022-12-28T09:26:31.872Z,7.00
2022-12-28T09:29:01.697Z,7.05
2022-12-28T09:31:31.205Z,7.00
2022-12-28T09:36:48.154Z,6.96
2022-12-28T09:39:17.858Z,6.93
2022-12-28T09:41:56.215Z,6.88
2022-12-28T09:45:18.003Z,6.90
2022-12-28T09:47:51.983Z,6.69
2022-12-28T09:50:19.032Z,6.83
2022-12-28T09:52:49.965Z,6.89
2022-12-28T09:55:19.508Z,6.88
2022-12-28T09:57:51.221Z,6.88
2022-12-28T10:00:24.379Z,6.79
2022-12-28T10:02:57.651Z,6.79
2022-12-28T10:05:25.238Z,6.86
2022-12-28T10:07:55.395Z,6.53
2022-12-28T10:10:23.799Z,6.92
2022-12-28T10:12:51.300Z,6.66
2022-12-28T10:15:18.570Z,6.80
2022-12-28T10:17:45.877Z,6.73
2022-12-28T10:20:22.086Z,6.84
2022-12-28T10:22:53.218Z,6.49
2022-12-28T10:25:23.060Z,6.52
2022-12-28T10:27:50.084Z,6.81
2022-12-28T10:30:20.506Z,6.81
2022-12-28T10:33:02.206Z,6.83
2022-12-28T10:35:39.459Z,6.81
2022-12-28T10:38:19.809Z,6.84
2022-12-28T10:41:14.508Z,6.66
2022-12-28T10:43:44.301Z,6.82
2022-12-28T10:46:23.632Z,6.82
2022-12-28T10:48:57.016Z,6.71
2022-12-28T10:51:26.562Z,6.64
2022-12-28T10:53:58.268Z,6.84
2022-12-28T10:56:30.458Z,6.66
2022-12-28T10:59:15.379Z,6.88
2022-12-28T11:01:43.193Z,6.85
2022-12-28T11:04:25.450Z,6.70
2022-12-28T11:07:01.297Z,6.84
2022-12-28T11:09:29.628Z,6.87
2022-12-28T11:12:16.249Z,6.84
2022-12-28T11:14:43.408Z,6.89
2022-12-28T11:17:20.150Z,6.70
2022-12-28T11:19:49.740Z,6.88
2022-12-28T11:22:22.698Z,6.49
2022-12-28T11:24:49.682Z,6.79
2022-12-28T11:27:19.777Z,6.91
2022-12-28T11:29:54.582Z,6.91
2022-12-28T11:32:23.388Z,6.90
2022-12-28T11:34:52.815Z,6.87
2022-12-28T11:37:19.797Z,6.85
2022-12-28T11:39:49.004Z,6.90
2022-12-28T11:42:39.492Z,6.92
2022-12-28T11:45:15.653Z,6.71
2022-12-28T11:47:42.884Z,6.92
2022-12-28T11:50:33.840Z,6.96
2022-12-28T11:53:02.738Z,6.74
2022-12-28T11:55:51.202Z,6.92
2022-12-28T11:59:02.005Z,6.85
2022-12-28T12:01:37.140Z,6.96
2022-12-28T12:04:04.148Z,6.97
2022-12-28T12:06:48.126Z,6.99
2022-12-28T12:09:21.188Z,6.96
2022-12-28T12:12:24.219Z,6.85
2022-12-28T12:14:53.874Z,6.88
2022-12-28T12:17:43.166Z,7.03
2022-12-28T12:20:51.830Z,6.95
2022-12-28T12:23:26.373Z,6.91
2022-12-28T12:25:56.378Z,6.83
2022-12-28T12:28:47.837Z,6.78
2022-12-28T12:31:30.737Z,6.53
2022-12-28T12:34:19.459Z,6.81
2022-12-28T12:37:37.493Z,6.87
2022-12-28T12:40:10.240Z,6.92
2022-12-28T12:43:14.134Z,6.96
2022-12-28T12:46:05.629Z,6.98
2022-12-28T12:48:57.002Z,7.03
2022-12-28T12:51:27.012Z,7.02
2022-12-28T12:54:27.981Z,7.06
2022-12-28T12:57:03.358Z,6.80
2022-12-28T12:59:51.748Z,7.10
2022-12-28T13:02:25.619Z,7.10
2022-12-28T13:04:52.842Z,7.05
2022-12-28T13:07:25.116Z,7.10
2022-12-28T13:09:57.289Z,7.05
2022-12-28T13:12:25.616Z,7.07
2022-12-28T13:15:03.758Z,7.07
2022-12-28T13:17:33.151Z,7.01
2022-12-28T13:20:11.167Z,7.23
2022-12-28T13:22:45.450Z,7.09
2022-12-28T13:25:30.318Z,6.95
2022-12-28T13:28:02.190Z,7.27
2022-12-28T13:30:30.811Z,7.26
2022-12-28T13:33:00.129Z,7.32
2022-12-28T13:35:30.750Z,7.33
2022-12-28T13:38:05.276Z,7.33
2022-12-28T13:40:33.690Z,7.15
2022-12-28T13:43:25.071Z,7.34
2022-12-28T13:46:01.356Z,7.09
2022-12-28T13:48:29.512Z,7.34
2022-12-28T13:50:56.521Z,7.36
2022-12-28T13:53:28.289Z,7.35
2022-12-28T13:55:59.353Z,7.40
2022-12-28T13:58:32.356Z,7.40
2022-12-28T14:01:02.219Z,7.34
2022-12-28T14:03:35.930Z,7.37
2022-12-28T14:06:07.374Z,7.39
2022-12-28T14:08:36.664Z,7.20
2022-12-28T14:11:05.607Z,7.08
2022-12-28T14:13:34.219Z,6.86
2022-12-28T14:16:02.898Z,7.17
2022-12-28T14:18:33.706Z,7.38
2022-12-28T14:21:01.968Z,7.15
2022-12-28T14:23:31.529Z,7.15
2022-12-28T14:26:00.689Z,7.10
2022-12-28T14:28:53.186Z,7.33
2022-12-28T14:31:22.729Z,7.33
2022-12-28T14:33:52.340Z,7.33
2022-12-28T14:36:22.531Z,6.90
2022-12-28T14:38:52.853Z,7.12
2022-12-28T14:41:25.744Z,7.32
2022-12-28T14:44:03.063Z,7.24
2022-12-28T14:46:36.283Z,6.94
2022-12-28T14:49:25.004Z,7.28
2022-12-28T14:51:52.078Z,7.24
2022-12-28T14:54:25.974Z,7.24
2022-12-28T14:57:00.815Z,7.19
2022-12-28T14:59:33.871Z,6.97
2022-12-28T15:02:01.122Z,7.07
2022-12-28T15:04:38.297Z,6.94
2022-12-28T15:07:06.928Z,6.85
2022-12-28T15:09:34.171Z,6.96
2022-12-28T15:12:20.796Z,6.69
2022-12-28T15:14:49.038Z,6.78
2022-12-28T15:17:16.849Z,6.88
2022-12-28T15:19:45.321Z,6.67
2022-12-28T15:22:13.163Z,6.61
2022-12-28T15:24:41.894Z,6.48
2022-12-28T15:27:08.925Z,6.47
2022-12-28T15:32:23.183Z,6.72
2022-12-28T15:34:50.141Z,6.36
2022-12-28T15:37:17.028Z,6.30
2022-12-28T15:39:43.963Z,6.46
2022-12-28T15:42:10.893Z,6.48
2022-12-28T15:44:37.917Z,6.17
2022-12-28T15:47:05.083Z,6.38
2022-12-28T15:49:32.336Z,6.16
2022-12-28T15:51:59.886Z,6.30
2022-12-28T15:54:26.858Z,6.03
2022-12-28T15:56:55.434Z,6.26
2022-12-28T15:59:22.540Z,6.12
2022-12-28T16:01:49.907Z,6.04
2022-12-28T16:04:17.031Z,6.02
2022-12-28T16:06:45.173Z,6.00
2022-12-28T16:09:14.109Z,6.02
2022-12-28T16:11:41.930Z,5.94
2022-12-28T16:14:14.432Z,5.79
2022-12-28T16:16:42.273Z,5.60
2022-12-28T16:19:13.110Z,5.78
2022-12-28T16:21:41.019Z,5.73
2022-12-28T16:24:08.283Z,5.68
2022-12-28T16:26:35.327Z,5.69
2022-12-28T16:29:03.257Z,5.50
2022-12-28T16:31:36.317Z,5.22
2022-12-28T16:34:17.896Z,5.30
2022-12-28T16:36:48.901Z,5.37
2022-12-28T16:39:18.069Z,5.36
2022-12-28T16:41:45.162Z,5.09
2022-12-28T16:44:20.880Z,5.25
2022-12-28T16:46:48.742Z,5.14
2022-12-28T16:49:15.911Z,5.01
2022-12-28T16:51:45.495Z,5.05
2022-12-28T16:54:15.888Z,5.07
2022-12-28T16:56:51.338Z,5.01
2022-12-28T16:59:20.941Z,4.77
2022-12-28T17:01:48.746Z,4.67
2022-12-28T17:04:15.987Z,4.76
2022-12-28T17:06:44.287Z,4.52
2022-12-28T17:09:11.123Z,4.20
2022-12-28T17:11:38.173Z,4.15
2022-12-28T17:14:08.097Z,4.25
2022-12-28T17:16:35.231Z,4.51
2022-12-28T17:19:02.685Z,4.37
2022-12-28T17:21:31.011Z,4.40
2022-12-28T17:23:58.578Z,4.15
2022-12-28T17:26:25.601Z,4.53
2022-12-28T17:28:53.360Z,4.55
2022-12-28T17:31:22.650Z,4.52
2022-12-28T17:33:53.857Z,4.20
2022-12-28T17:36:21.351Z,4.39
2022-12-28T17:38:48.269Z,4.44
2022-12-28T17:41:23.510Z,4.52
2022-12-28T17:43:58.741Z,4.38
2022-12-28T17:46:29.012Z,4.57
2022-12-28T17:48:58.098Z,4.66
2022-12-28T17:51:26.626Z,4.68
2022-12-28T17:53:55.382Z,4.68
2022-12-28T17:56:22.395Z,4.77
2022-12-28T17:58:53.501Z,4.78
2022-12-28T18:01:20.549Z,4.62
2022-12-28T18:03:47.840Z,4.81
2022-12-28T18:06:15.013Z,4.83
2022-12-28T18:08:42.198Z,4.65
2022-12-28T18:11:11.339Z,4.84
2022-12-28T18:13:39.191Z,4.72
2022-12-28T18:16:07.280Z,4.70
2022-12-28T18:18:34.678Z,4.78
2022-12-28T18:21:04.334Z,4.81
2022-12-28T18:23:31.495Z,4.89
2022-12-28T18:26:10.102Z,4.92
2022-12-28T18:28:37.198Z,4.90
2022-12-28T18:31:05.562Z,4.62
2022-12-28T18:33:34.509Z,4.97
2022-12-28T18:36:17.357Z,4.55
2022-12-28T18:38:47.442Z,4.84
2022-12-28T18:41:17.352Z,4.85
2022-12-28T18:43:44.882Z,4.69
2022-12-28T18:46:11.999Z,4.81
2022-12-28T18:48:40.817Z,4.91
2022-12-28T18:51:13.811Z,4.82
2022-12-28T18:53:41.732Z,4.74
2022-12-28T18:56:12.238Z,4.62
2022-12-28T18:58:40.651Z,4.47
2022-12-28T19:01:32.857Z,4.69
2022-12-28T19:04:10.079Z,4.72
2022-12-28T19:06:38.214Z,4.72
2022-12-28T19:09:06.315Z,4.68
2022-12-28T19:11:33.682Z,4.75
2022-12-28T19:14:03.019Z,4.63
2022-12-28T19:16:31.787Z,4.61
2022-12-28T19:19:00.082Z,4.85
2022-12-28T19:21:32.868Z,4.40
2022-12-28T19:24:12.154Z,4.52
2022-12-28T19:26:39.374Z,4.56
2022-12-28T19:29:07.124Z,4.60
2022-12-28T19:31:34.981Z,4.56
2022-12-28T19:34:01.967Z,4.47
2022-12-28T19:36:29.295Z,4.51
2022-12-28T19:38:57.266Z,4.38
2022-12-28T19:41:24.942Z,4.46
2022-12-28T19:43:52.102Z,4.42
2022-12-28T19:46:30.817Z,4.20
2022-12-28T19:49:02.967Z,4.32
2022-12-28T19:51:32.449Z,4.12
2022-12-28T19:54:00.675Z,4.32
2022-12-28T19:56:27.729Z,4.24
2022-12-28T19:59:01.196Z,4.34
2022-12-28T20:01:32.706Z,4.09
2022-12-28T20:04:00.135Z,3.46
2022-12-28T20:06:29.435Z,4.23
2022-12-28T20:08:59.419Z,4.15
2022-12-28T20:11:28.007Z,4.01
2022-12-28T20:14:01.543Z,4.26
2022-12-28T20:16:30.688Z,4.18
2022-12-28T20:18:57.940Z,4.23
2022-12-28T20:21:26.108Z,4.12
2022-12-28T20:23:54.568Z,3.96
2022-12-28T20:26:23.083Z,4.02
2022-12-28T20:28:51.019Z,3.91
2022-12-28T20:31:18.523Z,3.63
2022-12-28T20:33:46.176Z,3.62
2022-12-28T20:36:16.545Z,3.93
2022-12-28T20:38:43.821Z,3.71
2022-12-28T20:41:37.909Z,3.83
2022-12-28T20:44:11.520Z,3.83
2022-12-28T20:46:38.990Z,3.88
2022-12-28T20:49:06.318Z,3.73
2022-12-28T20:51:34.190Z,3.45
2022-12-28T20:54:01.780Z,3.87
2022-12-28T20:56:29.021Z,3.74
2022-12-28T20:58:56.480Z,3.71
2022-12-28T21:01:23.423Z,3.63
2022-12-28T21:03:50.620Z,3.83
2022-12-28T21:06:17.571Z,3.87
2022-12-28T21:08:44.630Z,3.65
2022-12-28T21:11:11.597Z,3.75
2022-12-28T21:13:43.903Z,3.51
2022-12-28T21:16:12.104Z,3.76
2022-12-28T21:18:39.192Z,3.77
2022-12-28T21:21:06.613Z,3.49
2022-12-28T21:23:33.575Z,3.76
2022-12-28T21:26:08.156Z,3.75
2022-12-28T21:28:35.038Z,3.92
2022-12-28T21:31:04.963Z,3.87
2022-12-28T21:33:33.100Z,3.90
2022-12-28T21:36:06.028Z,3.74
2022-12-28T21:38:36.274Z,3.76
2022-12-28T21:41:08.937Z,3.67
2022-12-28T21:43:35.961Z,3.96
2022-12-28T21:46:14.188Z,4.02
2022-12-28T21:48:41.971Z,4.03
2022-12-28T21:51:28.829Z,4.02
2022-12-28T21:53:55.849Z,4.05
2022-12-28T21:56:22.814Z,3.86
2022-12-28T21:58:53.153Z,3.79
2022-12-28T22:01:39.145Z,4.18
2022-12-28T22:04:25.182Z,3.97
2022-12-28T22:06:52.117Z,4.13
2022-12-28T22:09:37.582Z,3.90
2022-12-28T22:12:23.125Z,4.22
2022-12-28T22:14:50.092Z,4.08
2022-12-28T22:17:17.041Z,4.30
2022-12-28T22:19:44.035Z,4.15
2022-12-28T22:22:11.158Z,4.01
2022-12-28T22:24:38.140Z,4.26
2022-12-28T22:27:05.080Z,4.15
2022-12-28T22:29:32.105Z,4.38
2022-12-28T22:31:59.101Z,4.36
2022-12-28T22:34:26.198Z,4.35
2022-12-28T22:36:53.292Z,4.50
2022-12-28T22:39:20.386Z,4.26
2022-12-28T22:41:47.498Z,4.55
2022-12-28T22:44:14.442Z,4.35
2022-12-28T22:46:41.441Z,4.52
2022-12-28T22:49:11.280Z,4.55
2022-12-28T22:51:38.207Z,4.41
2022-12-28T22:54:05.217Z,4.27
2022-12-28T22:56:32.177Z,4.25
2022-12-28T22:59:04.251Z,4.52
2022-12-28T23:01:31.862Z,4.39
2022-12-28T23:03:58.819Z,4.37
2022-12-28T23:06:25.724Z,4.30
2022-12-28T23:08:52.922Z,4.37
2022-12-28T23:11:39.522Z,4.33
2022-12-28T23:14:25.069Z,4.29
2022-12-28T23:16:52.639Z,4.19
2022-12-28T23:19:38.584Z,4.15
2022-12-28T23:22:25.928Z,4.02
2022-12-28T23:25:11.498Z,4.07
2022-12-28T23:27:43.816Z,4.15
2022-12-28T23:30:22.440Z,4.20
2022-12-28T23:32:51.319Z,4.06
2022-12-28T23:35:19.448Z,3.90
2022-12-28T23:37:47.301Z,3.53
2022-12-28T23:40:16.326Z,3.72
2022-12-28T23:42:44.031Z,3.83
2022-12-28T23:45:15.314Z,3.76
2022-12-28T23:47:46.180Z,3.44
2022-12-28T23:50:14.738Z,3.78
2022-12-28T23:52:42.415Z,3.34
2022-12-28T23:55:10.639Z,3.54
2022-12-28T23:57:38.355Z,3.50
